Terminal Aerodrome Forecast
Issued by NWS Houston/Galveston, TX

Home | Current Version | Previous Version | Text Only | Print | Product List | Glossary On
Versions: 1 2 3 4 5 6 7 8 9 10 11 12 13 14 15 16 17 18 19 20 21 22 23 24
000
FTUS44 KHGX 042320
TAFCLL
TAF
KCLL 042320Z 0500/0524 15013KT P6SM FEW070
     FM050200 12006KT P6SM SCT250
     FM051000 11005KT P6SM SCT015
      TEMPO 0510/0514 BKN022
     FM051500 14011KT P6SM VCSH SCT025 PROB30 0516/0519 -SHRA BKN025
     FM051900 14014KT P6SM VCTS BKN035CB
      TEMPO 0519/0523 TSRA=

USA.gov is the U.S. government's official web portal to all federal, state and local government web resources and services.